Time;durP1;ratioP1;P1;durP2;ratioP2;P2;SDS_P1;SDS_P2;PMS_P1;PMS_P2;Temp;Humidity;BMP_temperature;BMP_pressure;BME280_temperature;BME280_humidity;BME280_pressure;Samples;Min_cycle;Max_cycle;Signal;HPM_P1;HPM_P2
2022/08/16 00:01:07;;;;;;;9.43;4.75;;;21.10;99.90;;;;;;4976798;28;20652;-70
2022/08/16 00:03:33;;;;;;;7.13;4.50;;;21.00;99.90;;;;;;4979104;28;20525;-71
2022/08/16 00:05:59;;;;;;;12.75;5.15;;;21.00;99.90;;;;;;4986309;28;20469;-68
2022/08/16 00:08:25;;;;;;;10.20;4.78;;;21.00;99.90;;;;;;4976247;28;20030;-71
2022/08/16 00:10:50;;;;;;;11.50;5.10;;;20.90;99.90;;;;;;4975688;28;20038;-69
2022/08/16 00:13:16;;;;;;;10.63;4.80;;;20.90;99.90;;;;;;5010079;28;20034;-70
2022/08/16 00:15:45;;;;;;;7.63;4.97;;;20.80;99.90;;;;;;4976074;28;20399;-70
2022/08/16 00:18:12;;;;;;;10.98;5.47;;;20.80;99.90;;;;;;4978456;28;20038;-69
2022/08/16 00:20:40;;;;;;;8.95;4.70;;;20.80;99.90;;;;;;4974724;28;20218;-69
2022/08/16 00:23:05;;;;;;;11.95;5.60;;;20.80;99.90;;;;;;4977176;28;20516;-70
2022/08/16 00:25:31;;;;;;;13.32;5.25;;;20.70;99.90;;;;;;4979761;28;20066;-70
2022/08/16 00:27:57;;;;;;;14.50;5.20;;;20.70;99.90;;;;;;4976819;28;20121;-69
2022/08/16 00:30:23;;;;;;;12.02;5.03;;;20.70;99.90;;;;;;4976614;28;20035;-70
2022/08/16 00:32:53;;;;;;;9.90;5.55;;;20.60;99.90;;;;;;4976796;28;20129;-71
2022/08/16 00:35:24;;;;;;;10.40;5.20;;;20.60;99.90;;;;;;4974266;28;20039;-72
2022/08/16 00:37:50;;;;;;;8.75;4.95;;;20.50;99.90;;;;;;4974139;28;20034;-71
2022/08/16 00:40:23;;;;;;;14.25;6.13;;;20.60;99.90;;;;;;4979316;28;20400;-72
2022/08/16 00:42:49;;;;;;;13.05;6.28;;;20.50;99.90;;;;;;4978579;28;20118;-72
2022/08/16 00:45:30;;;;;;;11.88;5.20;;;20.50;99.90;;;;;;4975722;28;20153;-73
2022/08/16 00:47:55;;;;;;;9.00;5.10;;;20.50;99.90;;;;;;4979352;28;20034;-70
2022/08/16 00:50:27;;;;;;;12.23;5.40;;;20.40;99.90;;;;;;4981742;28;20392;-72
2022/08/16 00:52:53;;;;;;;11.23;5.15;;;20.40;99.90;;;;;;4973847;28;20567;-72
2022/08/16 00:55:21;;;;;;;14.43;6.55;;;20.40;99.90;;;;;;4974269;28;20744;-72
2022/08/16 00:57:49;;;;;;;10.50;5.30;;;20.40;99.90;;;;;;4977077;28;20139;-73
2022/08/16 01:00:15;;;;;;;12.75;5.70;;;20.40;99.90;;;;;;4973717;28;20059;-72
2022/08/16 01:02:40;;;;;;;10.35;6.13;;;20.40;99.90;;;;;;4976479;28;20499;-68
2022/08/16 01:05:06;;;;;;;12.88;6.53;;;20.40;99.90;;;;;;4976097;28;20084;-73
2022/08/16 01:07:33;;;;;;;12.15;6.75;;;20.40;99.90;;;;;;4976447;28;20031;-73
2022/08/16 01:09:59;;;;;;;10.30;6.18;;;20.30;99.90;;;;;;4974324;28;20030;-72
2022/08/16 01:12:25;;;;;;;14.40;6.65;;;20.40;99.90;;;;;;4981310;28;20463;-71
2022/08/16 01:14:55;;;;;;;10.27;6.45;;;20.30;99.90;;;;;;4979564;28;20077;-70
2022/08/16 01:17:21;;;;;;;12.20;5.95;;;20.30;99.90;;;;;;5008543;28;20042;-70
2022/08/16 01:19:57;;;;;;;15.40;6.15;;;20.30;99.90;;;;;;4974124;28;20073;-73
2022/08/16 01:22:37;;;;;;;12.55;5.88;;;20.30;99.90;;;;;;4975708;28;20034;-72
2022/08/16 01:25:21;;;;;;;11.55;6.28;;;20.30;99.90;;;;;;4978222;28;20570;-73
2022/08/16 01:27:51;;;;;;;16.17;7.63;;;20.30;99.90;;;;;;4978240;28;20034;-73
2022/08/16 01:30:24;;;;;;;9.20;6.07;;;20.30;99.90;;;;;;4974829;28;20049;-73
2022/08/16 01:32:52;;;;;;;11.02;6.25;;;20.30;99.90;;;;;;4975631;28;20045;-73
2022/08/16 01:35:30;;;;;;;9.73;5.90;;;20.30;99.90;;;;;;4973453;28;20035;-72
2022/08/16 01:38:12;;;;;;;11.25;6.60;;;20.30;99.90;;;;;;4973339;28;20045;-71
2022/08/16 01:40:37;;;;;;;12.02;7.07;;;20.20;99.90;;;;;;4977488;28;20050;-72
2022/08/16 01:43:03;;;;;;;10.45;6.28;;;20.30;99.90;;;;;;4973904;28;20043;-73
2022/08/16 01:45:29;;;;;;;11.00;6.15;;;20.30;99.90;;;;;;4976732;28;20031;-73
2022/08/16 01:47:54;;;;;;;14.13;6.88;;;20.20;99.90;;;;;;4974760;28;20659;-72
2022/08/16 01:50:21;;;;;;;11.73;6.82;;;20.20;99.90;;;;;;4981557;28;20043;-74
2022/08/16 01:52:47;;;;;;;15.20;6.18;;;20.20;99.90;;;;;;4975978;28;20058;-73
2022/08/16 01:55:16;;;;;;;12.63;6.82;;;20.20;99.90;;;;;;4972709;28;20053;-73
2022/08/16 01:57:42;;;;;;;13.73;7.45;;;20.10;99.90;;;;;;5007684;28;20026;-72
2022/08/16 02:00:10;;;;;;;9.73;6.32;;;20.10;99.90;;;;;;4977075;28;20027;-73
2022/08/16 02:02:36;;;;;;;12.57;7.05;;;20.10;99.90;;;;;;5004418;28;20085;-73
2022/08/16 02:05:03;;;;;;;12.15;6.80;;;20.00;99.90;;;;;;4976173;28;20078;-72
2022/08/16 02:07:29;;;;;;;9.43;6.10;;;20.00;99.90;;;;;;4978110;28;20031;-71
2022/08/16 02:09:54;;;;;;;9.90;6.50;;;19.90;99.90;;;;;;4974741;28;20050;-73
2022/08/16 02:12:20;;;;;;;14.23;7.45;;;19.90;99.90;;;;;;4980579;28;20124;-73
2022/08/16 02:14:45;;;;;;;14.07;7.03;;;19.90;99.90;;;;;;5002246;28;20248;-72
2022/08/16 02:17:12;;;;;;;14.32;7.22;;;19.80;99.90;;;;;;4975842;28;20724;-72
2022/08/16 02:19:40;;;;;;;14.43;7.88;;;19.80;99.90;;;;;;4975631;28;20039;-73
2022/08/16 02:22:09;;;;;;;11.65;7.18;;;19.80;99.90;;;;;;4977056;28;20030;-73
2022/08/16 02:24:36;;;;;;;17.38;7.03;;;19.80;99.90;;;;;;4973219;28;20049;-72
2022/08/16 02:27:02;;;;;;;13.43;6.97;;;19.80;99.90;;;;;;4983636;28;20617;-73
2022/08/16 02:29:28;;;;;;;15.40;7.72;;;19.80;99.90;;;;;;4973258;28;20035;-70
2022/08/16 02:31:54;;;;;;;14.93;7.20;;;19.80;99.90;;;;;;4974172;28;20122;-71
2022/08/16 02:34:20;;;;;;;12.20;7.97;;;19.80;99.90;;;;;;4976330;28;20039;-74
2022/08/16 02:36:46;;;;;;;12.25;7.10;;;19.80;99.90;;;;;;4977499;28;20495;-73
2022/08/16 02:39:13;;;;;;;13.23;7.18;;;19.70;99.90;;;;;;4980671;28;20113;-70
2022/08/16 02:41:41;;;;;;;11.63;7.03;;;19.70;99.90;;;;;;4975445;28;20039;-71
2022/08/16 02:44:10;;;;;;;14.38;7.60;;;19.70;99.90;;;;;;4975914;28;20071;-73
2022/08/16 02:46:36;;;;;;;13.57;7.47;;;19.70;99.90;;;;;;4981106;28;20578;-72
2022/08/16 02:49:02;;;;;;;11.65;6.72;;;19.70;99.90;;;;;;4985011;28;20062;-73
2022/08/16 02:51:28;;;;;;;15.18;7.65;;;19.70;99.90;;;;;;4981468;28;20051;-73
2022/08/16 02:53:54;;;;;;;12.05;6.90;;;19.70;99.90;;;;;;4977510;28;20023;-72
2022/08/16 02:56:20;;;;;;;13.45;7.18;;;19.70;99.90;;;;;;4979433;28;20510;-73
2022/08/16 02:58:48;;;;;;;11.73;6.57;;;19.60;99.90;;;;;;4978270;28;20774;-73
2022/08/16 03:01:17;;;;;;;11.70;6.28;;;19.60;99.90;;;;;;4978151;28;20042;-71
2022/08/16 03:03:43;;;;;;;13.35;7.30;;;19.60;99.90;;;;;;4978175;28;20037;-72
2022/08/16 03:06:08;;;;;;;12.05;6.43;;;19.60;99.90;;;;;;4976896;28;20030;-71
2022/08/16 03:08:34;;;;;;;14.85;7.00;;;19.60;99.90;;;;;;4979109;28;20031;-71
2022/08/16 03:11:00;;;;;;;11.80;6.50;;;19.60;99.90;;;;;;4975101;28;20026;-72
2022/08/16 03:13:26;;;;;;;11.27;6.70;;;19.50;99.90;;;;;;4978985;28;20031;-72
2022/08/16 03:15:52;;;;;;;14.98;6.97;;;19.50;99.90;;;;;;4977443;28;20046;-72
2022/08/16 03:18:18;;;;;;;13.13;7.60;;;19.50;99.90;;;;;;4976752;28;20043;-72
2022/08/16 03:20:43;;;;;;;11.45;7.10;;;19.50;99.90;;;;;;4978748;28;20034;-72
2022/08/16 03:23:09;;;;;;;11.68;7.40;;;19.50;99.90;;;;;;4986777;28;20023;-72
2022/08/16 03:25:35;;;;;;;13.88;7.18;;;19.50;99.90;;;;;;4985610;28;20525;-73
2022/08/16 03:28:01;;;;;;;13.57;7.15;;;19.50;99.90;;;;;;4979130;28;20034;-72
2022/08/16 03:30:30;;;;;;;12.95;6.68;;;19.50;99.90;;;;;;4977063;28;20035;-72
2022/08/16 03:32:56;;;;;;;13.68;7.40;;;19.50;99.90;;;;;;4975821;28;20419;-71
2022/08/16 03:35:26;;;;;;;13.93;6.30;;;19.40;99.90;;;;;;4978029;28;20162;-72
2022/08/16 03:37:55;;;;;;;13.77;7.57;;;19.40;99.90;;;;;;4976075;28;20101;-73
2022/08/16 03:40:22;;;;;;;14.90;7.47;;;19.40;99.90;;;;;;4977122;28;20117;-73
2022/08/16 03:42:47;;;;;;;21.10;8.65;;;19.40;99.90;;;;;;4978925;28;20030;-74
2022/08/16 03:45:13;;;;;;;19.00;7.55;;;19.30;99.90;;;;;;4976237;28;20041;-74
2022/08/16 03:47:40;;;;;;;13.40;7.63;;;19.30;99.90;;;;;;4979180;28;20030;-72
2022/08/16 03:50:07;;;;;;;14.82;8.00;;;19.30;99.90;;;;;;4981457;28;20035;-73
2022/08/16 03:52:34;;;;;;;16.13;7.95;;;19.30;99.90;;;;;;4980780;28;20031;-73
2022/08/16 03:55:00;;;;;;;14.40;8.35;;;19.20;99.90;;;;;;4978380;28;20034;-73
2022/08/16 03:57:28;;;;;;;16.58;8.88;;;19.20;99.90;;;;;;4975034;28;20125;-70
2022/08/16 03:59:54;;;;;;;13.93;7.90;;;19.20;99.90;;;;;;4976288;28;20582;-73
2022/08/16 04:02:21;;;;;;;18.95;8.38;;;19.20;99.90;;;;;;4975724;28;20042;-72
2022/08/16 04:04:47;;;;;;;17.80;8.32;;;19.20;99.90;;;;;;4976518;28;20131;-73
2022/08/16 04:07:14;;;;;;;17.73;8.63;;;19.20;99.90;;;;;;4977520;28;20042;-73
2022/08/16 04:09:40;;;;;;;17.77;9.02;;;19.10;99.90;;;;;;4976040;28;20027;-70
2022/08/16 04:12:08;;;;;;;15.65;8.70;;;19.10;99.90;;;;;;4976648;28;20861;-73
2022/08/16 04:14:34;;;;;;;15.20;8.77;;;19.10;99.90;;;;;;4975301;28;20035;-72
2022/08/16 04:16:59;;;;;;;17.70;8.77;;;19.10;99.90;;;;;;4975201;28;20040;-72
2022/08/16 04:19:26;;;;;;;15.75;8.57;;;19.10;99.90;;;;;;4973807;28;20129;-73
2022/08/16 04:21:52;;;;;;;17.52;9.15;;;19.10;99.90;;;;;;4973515;28;20046;-73
2022/08/16 04:24:18;;;;;;;16.67;9.10;;;19.10;99.90;;;;;;4976206;28;20581;-73
2022/08/16 04:26:44;;;;;;;19.85;10.23;;;19.10;99.90;;;;;;4982576;28;20030;-73
2022/08/16 04:29:09;;;;;;;19.38;10.73;;;19.10;99.90;;;;;;4977865;28;20110;-71
2022/08/16 04:31:35;;;;;;;16.23;8.85;;;19.10;99.90;;;;;;4976880;28;20034;-70
2022/08/16 04:34:01;;;;;;;24.20;9.60;;;19.10;99.90;;;;;;4971805;28;20038;-73
2022/08/16 04:36:26;;;;;;;16.40;8.63;;;19.10;99.90;;;;;;4978662;28;20062;-71
2022/08/16 04:38:53;;;;;;;19.92;9.43;;;19.10;99.90;;;;;;4974776;28;20105;-72
2022/08/16 04:41:19;;;;;;;20.67;9.68;;;19.10;99.90;;;;;;4976725;28;20096;-72
2022/08/16 04:43:45;;;;;;;17.65;9.68;;;19.10;99.90;;;;;;4975393;28;20447;-71
2022/08/16 04:46:13;;;;;;;17.73;10.00;;;19.10;99.90;;;;;;4976266;28;20034;-71
2022/08/16 04:48:40;;;;;;;20.05;11.00;;;19.10;99.90;;;;;;4982339;28;20034;-72
2022/08/16 04:51:06;;;;;;;18.40;9.52;;;19.10;99.90;;;;;;4983820;28;20503;-70
2022/08/16 04:53:32;;;;;;;17.73;10.10;;;19.10;99.90;;;;;;4977086;28;20042;-71
2022/08/16 04:55:57;;;;;;;21.58;11.13;;;19.10;99.90;;;;;;4979622;28;20037;-71
2022/08/16 04:58:23;;;;;;;19.75;10.48;;;19.10;99.90;;;;;;4976763;28;20027;-72
2022/08/16 05:00:49;;;;;;;17.75;10.52;;;19.10;99.90;;;;;;4973528;28;20116;-72
2022/08/16 05:03:14;;;;;;;24.65;10.13;;;19.10;99.90;;;;;;4986191;28;20038;-72
2022/08/16 05:05:41;;;;;;;16.23;9.90;;;19.10;99.90;;;;;;4983633;28;20116;-73
2022/08/16 05:08:07;;;;;;;20.23;10.77;;;19.10;99.90;;;;;;4981321;28;20030;-73
2022/08/16 05:10:33;;;;;;;17.08;9.80;;;19.10;99.90;;;;;;4979467;28;20670;-73
2022/08/16 05:13:00;;;;;;;18.15;10.43;;;19.10;99.90;;;;;;4981952;28;20210;-73
2022/08/16 05:15:26;;;;;;;25.10;10.93;;;19.10;99.90;;;;;;4984848;28;20073;-72
2022/08/16 05:17:53;;;;;;;18.30;10.93;;;19.20;99.90;;;;;;4981629;28;20104;-72
2022/08/16 05:20:19;;;;;;;20.33;11.02;;;19.20;99.90;;;;;;4981806;28;20092;-72
2022/08/16 05:22:45;;;;;;;21.20;10.63;;;19.20;99.90;;;;;;4981113;28;20042;-72
2022/08/16 05:25:11;;;;;;;19.35;11.30;;;19.20;99.90;;;;;;4983006;28;20045;-72
2022/08/16 05:27:38;;;;;;;17.08;10.07;;;19.20;99.90;;;;;;4984926;28;20029;-71
2022/08/16 05:30:06;;;;;;;20.35;10.45;;;19.20;99.90;;;;;;4980913;28;20052;-72
2022/08/16 05:32:32;;;;;;;17.88;10.57;;;19.30;99.90;;;;;;4982615;28;20073;-72
2022/08/16 05:34:58;;;;;;;18.17;10.48;;;19.30;99.90;;;;;;4980495;28;20096;-72
2022/08/16 05:37:24;;;;;;;18.98;10.38;;;19.30;99.90;;;;;;4981453;28;20034;-73
2022/08/16 05:39:50;;;;;;;19.63;10.63;;;19.30;99.90;;;;;;4981904;28;20042;-71
2022/08/16 05:42:15;;;;;;;21.63;11.50;;;19.40;99.90;;;;;;4982423;28;20034;-72
2022/08/16 05:44:41;;;;;;;20.27;10.27;;;19.40;99.90;;;;;;4979811;28;20096;-73
2022/08/16 05:47:07;;;;;;;21.92;10.85;;;19.40;99.90;;;;;;4981607;28;20064;-73
2022/08/16 05:49:33;;;;;;;23.40;12.23;;;19.50;99.90;;;;;;4983647;28;20596;-71
2022/08/16 05:51:58;;;;;;;17.58;10.85;;;19.50;99.90;;;;;;4982974;28;20576;-74
2022/08/16 05:54:26;;;;;;;19.45;11.02;;;19.60;99.90;;;;;;4981753;28;20046;-73
2022/08/16 05:56:53;;;;;;;22.80;11.40;;;19.60;99.90;;;;;;4980813;28;20039;-72
2022/08/16 05:59:19;;;;;;;22.65;10.93;;;19.60;99.90;;;;;;4983629;28;20050;-72
2022/08/16 06:01:49;;;;;;;20.55;10.90;;;19.70;99.90;;;;;;4979464;28;20030;-72
2022/08/16 06:04:15;;;;;;;24.88;12.57;;;19.80;99.90;;;;;;4979481;28;20038;-73
2022/08/16 06:06:43;;;;;;;20.20;11.30;;;19.90;99.90;;;;;;4980634;28;20044;-74
2022/08/16 06:09:10;;;;;;;20.77;10.70;;;19.90;99.90;;;;;;4983417;28;20058;-71
2022/08/16 06:11:36;;;;;;;20.52;11.90;;;20.00;99.90;;;;;;4984564;28;20031;-73
2022/08/16 06:14:02;;;;;;;23.10;10.50;;;20.10;99.90;;;;;;4984964;28;20041;-73
2022/08/16 06:16:28;;;;;;;22.75;11.80;;;20.20;99.90;;;;;;4985068;28;20046;-73
2022/08/16 06:18:53;;;;;;;16.70;9.75;;;20.20;99.90;;;;;;4985141;28;20034;-71
2022/08/16 06:21:19;;;;;;;18.33;10.05;;;20.40;99.90;;;;;;4987615;28;20049;-73
2022/08/16 06:23:44;;;;;;;20.80;10.65;;;20.40;99.90;;;;;;4984861;28;20347;-71
2022/08/16 06:26:10;;;;;;;19.65;9.55;;;20.60;99.90;;;;;;4981443;28;20033;-71
2022/08/16 06:28:36;;;;;;;20.52;12.25;;;20.70;99.90;;;;;;4983276;28;20034;-72
2022/08/16 06:31:02;;;;;;;18.23;10.02;;;20.90;99.90;;;;;;4983859;28;20034;-70
2022/08/16 06:33:28;;;;;;;23.05;11.07;;;21.10;99.90;;;;;;4986775;28;20038;-72
2022/08/16 06:35:55;;;;;;;16.90;9.63;;;21.30;99.90;;;;;;4983825;28;20046;-71
2022/08/16 06:38:21;;;;;;;20.35;9.60;;;21.70;99.90;;;;;;4986350;28;20033;-71
2022/08/16 06:40:47;;;;;;;19.27;9.70;;;22.30;99.90;;;;;;5015255;28;20403;-72
2022/08/16 06:43:13;;;;;;;13.88;9.73;;;23.10;99.90;;;;;;4984030;28;20041;-71
2022/08/16 06:45:41;;;;;;;19.70;9.25;;;23.70;99.90;;;;;;4986887;28;20050;-72
2022/08/16 06:48:07;;;;;;;13.98;8.02;;;24.50;99.90;;;;;;4985538;28;20097;-72
2022/08/16 06:50:34;;;;;;;12.65;8.15;;;25.30;99.90;;;;;;4985547;28;20904;-71
2022/08/16 06:53:00;;;;;;;14.10;8.77;;;26.00;99.90;;;;;;5016045;28;20763;-71
2022/08/16 06:55:26;;;;;;;17.75;9.20;;;26.60;98.80;;;;;;4988491;28;20042;-68
2022/08/16 06:57:53;;;;;;;12.55;8.73;;;26.90;97.90;;;;;;4989282;28;20045;-72
2022/08/16 07:00:20;;;;;;;12.55;8.43;;;27.30;97.20;;;;;;4989344;28;20042;-71
2022/08/16 07:02:46;;;;;;;12.63;9.43;;;27.90;96.30;;;;;;4985505;28;20042;-71
2022/08/16 07:05:14;;;;;;;19.40;10.32;;;28.10;95.80;;;;;;4985874;28;20479;-71
2022/08/16 07:07:41;;;;;;;14.85;9.82;;;28.40;94.80;;;;;;4983275;28;20101;-72
2022/08/16 07:10:08;;;;;;;18.70;10.82;;;28.40;94.50;;;;;;4984818;28;20042;-72
2022/08/16 07:12:34;;;;;;;17.23;11.25;;;28.70;93.90;;;;;;4985038;28;20120;-72
2022/08/16 07:15:00;;;;;;;19.73;12.60;;;28.90;93.40;;;;;;4982914;28;20042;-72
2022/08/16 07:17:26;;;;;;;17.83;11.65;;;29.00;92.90;;;;;;4984171;28;20117;-73
2022/08/16 07:19:53;;;;;;;15.23;11.30;;;29.00;93.50;;;;;;4983422;28;20090;-73
2022/08/16 07:22:20;;;;;;;17.02;10.88;;;29.00;92.10;;;;;;4983606;28;20071;-71
2022/08/16 07:24:45;;;;;;;20.60;11.63;;;28.50;93.20;;;;;;4983188;28;20034;-71
2022/08/16 07:27:11;;;;;;;15.73;11.00;;;28.10;93.60;;;;;;4983772;28;20040;-72
2022/08/16 07:29:37;;;;;;;18.17;11.13;;;27.50;94.00;;;;;;4983232;28;20034;-72
2022/08/16 07:32:04;;;;;;;20.20;9.73;;;26.90;94.90;;;;;;4982350;28;20217;-74
2022/08/16 07:34:30;;;;;;;16.73;9.57;;;26.40;95.60;;;;;;4984370;28;20034;-72
2022/08/16 07:36:58;;;;;;;15.35;9.18;;;25.90;96.30;;;;;;4980069;28;20034;-71
2022/08/16 07:39:23;;;;;;;16.42;10.77;;;25.60;96.80;;;;;;4986767;28;20477;-72
2022/08/16 07:41:49;;;;;;;16.65;10.35;;;25.50;97.30;;;;;;4981233;28;20153;-72
2022/08/16 07:44:15;;;;;;;25.75;11.18;;;25.20;97.50;;;;;;4981749;28;20592;-71
2022/08/16 07:46:40;;;;;;;17.48;11.50;;;25.00;98.00;;;;;;4982578;28;20034;-72
2022/08/16 07:49:06;;;;;;;20.15;10.43;;;24.80;98.40;;;;;;4986054;28;20043;-72
2022/08/16 07:51:35;;;;;;;18.50;11.98;;;24.70;99.00;;;;;;4983573;28;20041;-73
2022/08/16 07:54:05;;;;;;;18.10;10.82;;;24.60;99.30;;;;;;4982435;28;20453;-70
2022/08/16 07:56:31;;;;;;;17.00;10.23;;;24.60;99.50;;;;;;4981951;28;20061;-71
2022/08/16 07:58:57;;;;;;;22.25;11.85;;;24.40;99.80;;;;;;4983565;28;20038;-72
2022/08/16 08:01:23;;;;;;;24.38;11.50;;;24.40;99.90;;;;;;4984114;28;20520;-73
2022/08/16 08:03:51;;;;;;;18.83;12.07;;;24.40;99.90;;;;;;4981398;28;20042;-71
2022/08/16 08:06:19;;;;;;;21.30;11.70;;;24.40;99.90;;;;;;4981898;28;20041;-70
2022/08/16 08:08:46;;;;;;;20.60;11.77;;;24.40;99.90;;;;;;4982689;28;20045;-71
2022/08/16 08:11:12;;;;;;;20.58;12.10;;;24.40;99.90;;;;;;4982474;28;21067;-72
2022/08/16 08:13:37;;;;;;;19.67;12.60;;;24.50;99.90;;;;;;5014180;28;20033;-72
2022/08/16 08:16:03;;;;;;;19.65;12.30;;;24.50;99.90;;;;;;4980486;28;20035;-72
2022/08/16 08:18:29;;;;;;;20.00;11.82;;;24.60;99.90;;;;;;4983516;28;20078;-72
2022/08/16 08:20:56;;;;;;;19.35;11.27;;;24.60;99.90;;;;;;4980908;28;20034;-72
2022/08/16 08:23:21;;;;;;;19.88;12.65;;;24.70;99.90;;;;;;4982034;28;20418;-72
2022/08/16 08:25:47;;;;;;;21.95;11.55;;;24.80;99.90;;;;;;4981235;28;20041;-71
2022/08/16 08:28:14;;;;;;;20.02;10.85;;;24.90;99.90;;;;;;4983968;28;20034;-71
2022/08/16 08:30:40;;;;;;;22.17;10.70;;;25.00;99.90;;;;;;4982455;28;21465;-72
2022/08/16 08:33:06;;;;;;;19.58;10.93;;;25.00;99.90;;;;;;4980963;28;20043;-72
2022/08/16 08:35:33;;;;;;;18.00;10.50;;;25.10;99.90;;;;;;4981329;28;20046;-69
2022/08/16 08:37:59;;;;;;;17.35;10.57;;;25.20;99.80;;;;;;4980683;28;20050;-72
2022/08/16 08:40:27;;;;;;;14.73;9.05;;;25.30;99.70;;;;;;4981247;28;20026;-71
2022/08/16 08:42:54;;;;;;;14.50;9.77;;;25.30;99.40;;;;;;4980961;28;20045;-72
2022/08/16 08:45:21;;;;;;;21.40;11.88;;;25.30;99.50;;;;;;4981893;28;21110;-71
2022/08/16 08:47:46;;;;;;;19.13;10.23;;;25.40;99.10;;;;;;4981258;28;20030;-72
2022/08/16 08:50:15;;;;;;;21.77;10.23;;;25.40;99.10;;;;;;4983772;28;20038;-70
2022/08/16 08:52:41;;;;;;;20.38;10.88;;;25.40;99.40;;;;;;4982968;28;20026;-72
2022/08/16 08:55:09;;;;;;;18.90;10.15;;;25.50;98.90;;;;;;4981035;28;20045;-70
2022/08/16 08:57:36;;;;;;;24.27;10.23;;;25.40;99.20;;;;;;4981271;28;20038;-71
2022/08/16 09:00:04;;;;;;;19.05;10.32;;;25.50;99.40;;;;;;4982458;28;20045;-70
2022/08/16 09:02:30;;;;;;;21.90;8.77;;;25.60;99.10;;;;;;4988994;28;20475;-71
2022/08/16 09:04:55;;;;;;;17.48;9.02;;;25.70;98.90;;;;;;4981860;28;20034;-71
2022/08/16 09:07:21;;;;;;;15.20;9.85;;;25.90;98.60;;;;;;4985737;28;20441;-70
2022/08/16 09:09:47;;;;;;;21.40;9.75;;;25.90;98.50;;;;;;4984194;28;21282;-70
2022/08/16 09:12:13;;;;;;;17.25;10.07;;;26.00;98.30;;;;;;4987243;28;20042;-71
2022/08/16 09:14:38;;;;;;;15.90;8.93;;;26.00;98.10;;;;;;4988642;28;20042;-71
2022/08/16 09:17:05;;;;;;;19.17;10.80;;;26.00;98.10;;;;;;4983410;28;20041;-72
2022/08/16 09:19:32;;;;;;;12.32;8.23;;;26.10;97.90;;;;;;4984438;28;20073;-71
2022/08/16 09:21:58;;;;;;;13.52;10.05;;;26.10;98.40;;;;;;4982312;28;20046;-70
2022/08/16 09:24:23;;;;;;;15.77;9.50;;;26.20;98.20;;;;;;4982384;28;20058;-72
2022/08/16 09:26:49;;;;;;;19.80;11.38;;;26.30;98.50;;;;;;4981382;28;20392;-71
2022/08/16 09:29:15;;;;;;;16.17;10.45;;;26.40;97.90;;;;;;4983606;28;20039;-72
2022/08/16 09:31:41;;;;;;;16.48;8.55;;;26.60;97.70;;;;;;5013157;28;20038;-72
2022/08/16 09:34:10;;;;;;;20.13;9.80;;;26.60;97.40;;;;;;4978857;28;20042;-72
2022/08/16 09:36:36;;;;;;;17.52;9.48;;;26.70;97.30;;;;;;5012922;28;20451;-70
2022/08/16 09:39:02;;;;;;;21.85;9.73;;;26.80;97.10;;;;;;5012551;28;20052;-73
2022/08/16 09:41:28;;;;;;;18.38;11.00;;;26.70;97.10;;;;;;4977253;28;20053;-71
2022/08/16 09:43:53;;;;;;;15.85;10.45;;;26.70;97.40;;;;;;4977913;28;20503;-71
2022/08/16 09:46:20;;;;;;;15.90;9.55;;;26.70;97.70;;;;;;5010278;28;20611;-71
2022/08/16 09:48:46;;;;;;;15.73;8.50;;;26.70;97.60;;;;;;4980441;28;20056;-71
2022/08/16 09:51:12;;;;;;;19.70;9.75;;;26.90;97.20;;;;;;4977750;28;20099;-72
2022/08/16 09:53:38;;;;;;;16.40;9.23;;;26.90;97.40;;;;;;4979420;28;20126;-71
2022/08/16 09:56:13;;;;;;;13.32;7.70;;;26.90;97.20;;;;;;5011003;28;22050;-69
2022/08/16 09:58:39;;;;;;;15.95;9.20;;;27.00;97.00;;;;;;4979994;28;20455;-71
2022/08/16 10:01:04;;;;;;;14.55;8.55;;;27.00;96.80;;;;;;4977645;28;20031;-74
2022/08/16 10:03:30;;;;;;;22.40;10.52;;;27.10;96.20;;;;;;4978639;28;20038;-71
2022/08/16 10:05:56;;;;;;;23.08;10.35;;;27.00;96.40;;;;;;4977922;28;20511;-72
2022/08/16 10:08:22;;;;;;;16.48;10.10;;;27.10;96.40;;;;;;4979314;28;20034;-70
2022/08/16 10:13:33;;;;;;;15.35;9.82;;;27.20;96.70;;;;;;4979394;28;20702;-69
2022/08/16 10:15:59;;;;;;;17.30;10.65;;;27.20;96.80;;;;;;4976584;28;20038;-71
2022/08/16 10:18:28;;;;;;;20.40;10.15;;;27.30;96.40;;;;;;4979359;28;20058;-71
2022/08/16 10:20:54;;;;;;;15.48;9.20;;;27.30;96.60;;;;;;4976796;28;20034;-72
2022/08/16 10:23:21;;;;;;;14.95;8.98;;;27.30;96.30;;;;;;4979124;28;20420;-73
2022/08/16 10:25:47;;;;;;;16.50;8.77;;;27.40;96.40;;;;;;4978561;28;20537;-70
2022/08/16 10:28:14;;;;;;;17.23;8.32;;;27.50;96.40;;;;;;4977042;28;20053;-72
2022/08/16 10:30:43;;;;;;;14.75;9.55;;;27.70;96.20;;;;;;4976649;28;20035;-72
2022/08/16 10:33:13;;;;;;;12.20;7.18;;;27.80;96.10;;;;;;4976042;28;20042;-70
2022/08/16 10:35:40;;;;;;;13.85;8.90;;;28.00;96.00;;;;;;4977774;28;20043;-70
2022/08/16 10:38:05;;;;;;;14.30;8.90;;;28.10;95.10;;;;;;4977053;28;20988;-70
2022/08/16 10:40:31;;;;;;;13.80;8.32;;;28.20;95.00;;;;;;5009873;28;20050;-72
2022/08/16 10:43:01;;;;;;;13.07;7.78;;;28.20;94.90;;;;;;4978155;28;20050;-71
2022/08/16 10:45:28;;;;;;;18.60;8.73;;;28.30;95.10;;;;;;4978030;28;20046;-69
2022/08/16 10:47:54;;;;;;;14.38;7.47;;;28.40;94.80;;;;;;4978902;28;20035;-71
2022/08/16 10:50:20;;;;;;;14.10;8.35;;;28.50;94.70;;;;;;4980266;28;20033;-73
2022/08/16 10:52:46;;;;;;;12.00;8.07;;;28.60;94.50;;;;;;4978694;28;20027;-72
2022/08/16 10:55:12;;;;;;;16.35;7.35;;;28.60;94.40;;;;;;4981103;28;20116;-70
2022/08/16 10:57:39;;;;;;;11.35;7.80;;;28.60;94.20;;;;;;4982508;28;20089;-71
2022/08/16 11:00:09;;;;;;;15.90;8.40;;;28.70;94.10;;;;;;4980321;28;20918;-71
2022/08/16 11:02:36;;;;;;;12.20;8.23;;;28.80;93.80;;;;;;4982713;28;20066;-69
2022/08/16 11:05:03;;;;;;;13.75;8.32;;;28.70;93.80;;;;;;4979509;28;20042;-71
2022/08/16 11:07:28;;;;;;;16.23;8.48;;;28.60;93.80;;;;;;4980567;28;20046;-75
2022/08/16 11:09:54;;;;;;;18.67;8.25;;;28.40;93.20;;;;;;4982964;28;20053;-70
2022/08/16 11:12:19;;;;;;;11.55;7.82;;;28.20;93.40;;;;;;4981811;28;20037;-69
2022/08/16 11:14:45;;;;;;;11.50;6.57;;;28.10;93.60;;;;;;4983165;28;20141;-71
2022/08/16 11:17:12;;;;;;;11.30;6.18;;;28.10;94.10;;;;;;4982811;28;20110;-71
2022/08/16 11:19:40;;;;;;;12.23;6.95;;;28.00;94.40;;;;;;4983325;28;20046;-70
2022/08/16 11:22:06;;;;;;;15.80;8.45;;;28.10;94.00;;;;;;4980800;28;20509;-70
2022/08/16 11:24:32;;;;;;;11.45;7.20;;;28.20;94.00;;;;;;4981910;28;20042;-72
2022/08/16 11:26:58;;;;;;;12.05;6.70;;;28.30;94.10;;;;;;4982348;28;20038;-72
2022/08/16 11:29:24;;;;;;;11.73;6.20;;;28.50;93.90;;;;;;4983982;28;20026;-68
2022/08/16 11:31:49;;;;;;;10.68;6.35;;;28.50;93.70;;;;;;4983173;28;20046;-71
2022/08/16 11:34:16;;;;;;;9.15;5.82;;;28.70;93.30;;;;;;4983593;28;20517;-73
2022/08/16 11:36:42;;;;;;;11.93;6.60;;;28.70;93.30;;;;;;4984466;28;20027;-72
2022/08/16 11:39:07;;;;;;;12.18;5.43;;;28.60;93.20;;;;;;4984745;28;20038;-70
2022/08/16 11:41:37;;;;;;;13.80;7.68;;;28.50;93.20;;;;;;4984088;28;20510;-70
2022/08/16 11:44:05;;;;;;;18.45;8.18;;;28.60;93.30;;;;;;4983153;28;20151;-70
2022/08/16 11:46:33;;;;;;;15.02;7.78;;;28.60;93.00;;;;;;4984470;28;20068;-71
2022/08/16 11:48:59;;;;;;;11.10;6.88;;;28.60;93.10;;;;;;4984204;28;20061;-70
2022/08/16 11:51:26;;;;;;;12.02;6.70;;;28.60;92.70;;;;;;4986526;28;20049;-71
2022/08/16 11:53:51;;;;;;;11.57;5.53;;;28.60;92.50;;;;;;4983802;28;20514;-72
2022/08/16 11:56:18;;;;;;;17.17;7.53;;;28.60;92.60;;;;;;4982590;28;20042;-71
2022/08/16 11:58:43;;;;;;;7.05;4.45;;;28.40;92.10;;;;;;4983134;28;20034;-71
2022/08/16 12:01:09;;;;;;;8.75;5.25;;;28.30;92.50;;;;;;4983609;28;20089;-69
2022/08/16 12:03:35;;;;;;;11.50;5.00;;;28.30;92.40;;;;;;4982780;28;20133;-71
2022/08/16 12:06:06;;;;;;;12.10;4.95;;;28.30;92.70;;;;;;4980190;28;20053;-71
2022/08/16 12:08:32;;;;;;;9.80;6.25;;;28.30;92.60;;;;;;4982212;28;20038;-72
2022/08/16 12:10:59;;;;;;;9.48;4.57;;;28.40;91.80;;;;;;4981643;28;20401;-69
2022/08/16 12:13:25;;;;;;;10.95;6.03;;;28.20;92.20;;;;;;5014452;28;20049;-72
2022/08/16 12:15:50;;;;;;;11.07;5.70;;;28.10;92.30;;;;;;4982832;28;20034;-67
2022/08/16 12:18:16;;;;;;;15.90;6.20;;;28.10;92.50;;;;;;4980224;28;20045;-70
2022/08/16 12:20:43;;;;;;;9.25;4.93;;;28.00;92.60;;;;;;4982172;28;20038;-71
2022/08/16 12:23:09;;;;;;;12.77;5.25;;;27.90;92.80;;;;;;4979035;28;20133;-70
2022/08/16 12:25:36;;;;;;;8.02;5.13;;;27.80;92.20;;;;;;4980782;28;20470;-72
2022/08/16 12:28:04;;;;;;;16.17;4.35;;;27.60;92.30;;;;;;4978274;28;20647;-70
2022/08/16 12:30:33;;;;;;;8.70;5.03;;;27.50;92.20;;;;;;4978003;28;20042;-67
2022/08/16 12:33:00;;;;;;;10.32;6.28;;;27.40;92.60;;;;;;4979280;28;20038;-72